Asheboro, North Carolina
Current Conditions -  °F | °C
As of 10:35 PM on Friday 28 Nov 2014 (Local Time) from KHBI Reporting Station
Clear Clear  
Wind Chill: 30°   Ceiling: Unl
Heat Index: 30°   Visibility: 10mi
Dew Point: 25°   Wind: 0mph
Humidity: 80%   Direction: NA
Pressure: 30.31"   Gusts: NA
Location:  35.71°N, 79.81°W
Report Text: KHBI 290335Z AUTO 00000KT 10SM CLR M01/M04 A3031 RMK AO2 T10111041
Loading
Personal Weather Stations






























Interactive Weather Map New forecast layout! Learn more

10-Day Weather Forecast

Advertisements
Track Severe Weather on mobile